createdAt,value
2018-08-03T00:00:02.532Z,99.90
2018-08-03T00:02:31.043Z,99.90
2018-08-03T00:04:59.531Z,99.90
2018-08-03T00:07:28.044Z,99.90
2018-08-03T00:09:56.542Z,99.90
2018-08-03T00:12:25.117Z,99.90
2018-08-03T00:14:53.612Z,99.90
2018-08-03T00:17:22.188Z,99.90
2018-08-03T00:19:50.652Z,99.90
2018-08-03T00:22:19.140Z,99.90
2018-08-03T00:24:47.683Z,99.90
2018-08-03T00:27:16.164Z,99.90
2018-08-03T00:29:44.692Z,99.90
2018-08-03T00:32:13.201Z,99.90
2018-08-03T00:34:41.776Z,99.90
2018-08-03T00:39:38.510Z,99.90
2018-08-03T00:42:06.992Z,99.90
2018-08-03T00:44:35.516Z,99.90
2018-08-03T00:47:04.036Z,99.90
2018-08-03T00:49:32.592Z,99.90
2018-08-03T00:52:01.073Z,99.90
2018-08-03T00:54:29.612Z,99.90
2018-08-03T00:56:58.108Z,99.90
2018-08-03T01:01:54.804Z,99.90
2018-08-03T01:04:23.304Z,99.90
2018-08-03T01:06:51.776Z,99.90
2018-08-03T01:09:20.264Z,99.90
2018-08-03T01:11:48.816Z,99.90
2018-08-03T01:14:17.360Z,99.90
2018-08-03T01:16:45.935Z,99.90
2018-08-03T01:19:15.180Z,99.90
2018-08-03T01:21:44.968Z,99.90
2018-08-03T01:24:13.529Z,99.90
2018-08-03T01:26:42.572Z,99.90
2018-08-03T01:29:11.120Z,99.90
2018-08-03T01:31:39.626Z,99.90
2018-08-03T01:34:08.157Z,99.90
2018-08-03T01:36:36.664Z,99.90
2018-08-03T01:39:07.741Z,99.90
2018-08-03T01:41:36.329Z,99.90
2018-08-03T01:44:04.872Z,99.90
2018-08-03T01:46:33.340Z,99.90
2018-08-03T01:49:01.826Z,99.90
2018-08-03T01:51:30.318Z,99.90
2018-08-03T01:56:26.963Z,99.90
2018-08-03T01:58:55.428Z,99.90
2018-08-03T02:01:23.964Z,99.90
2018-08-03T02:03:52.469Z,99.90
2018-08-03T02:06:20.988Z,99.90
2018-08-03T02:08:49.503Z,99.90
2018-08-03T02:11:18.048Z,99.90
2018-08-03T02:13:46.543Z,99.90
2018-08-03T02:16:15.053Z,99.90
2018-08-03T02:18:43.566Z,99.90
2018-08-03T02:21:12.159Z,99.90
2018-08-03T02:23:40.665Z,99.90
2018-08-03T02:26:09.203Z,99.90
2018-08-03T02:28:37.701Z,99.90
2018-08-03T02:31:06.250Z,99.90
2018-08-03T02:33:34.755Z,99.90
2018-08-03T02:36:03.248Z,99.90
2018-08-03T02:38:31.717Z,99.90
2018-08-03T02:41:00.211Z,99.90
2018-08-03T02:43:28.676Z,99.90
2018-08-03T02:45:57.172Z,99.90
2018-08-03T02:48:25.644Z,99.90
2018-08-03T02:50:54.099Z,99.90
2018-08-03T02:53:22.541Z,99.90
2018-08-03T02:55:51.055Z,99.90
2018-08-03T02:58:19.523Z,99.90
2018-08-03T03:00:47.974Z,99.90
2018-08-03T03:03:16.443Z,99.90
2018-08-03T03:05:44.896Z,99.90
2018-08-03T03:08:13.363Z,99.90
2018-08-03T03:10:41.839Z,99.90
2018-08-03T03:13:10.323Z,99.90
2018-08-03T03:15:38.793Z,99.90
2018-08-03T03:20:35.399Z,99.90
2018-08-03T03:23:03.832Z,99.90
2018-08-03T03:25:32.316Z,99.90
2018-08-03T03:30:29.163Z,99.90
2018-08-03T03:32:57.616Z,99.90
2018-08-03T03:35:26.083Z,99.90
2018-08-03T03:37:54.524Z,99.90
2018-08-03T03:40:22.984Z,99.90
2018-08-03T03:42:51.455Z,99.90
2018-08-03T03:45:19.934Z,99.90
2018-08-03T03:47:48.380Z,99.90
2018-08-03T03:50:16.891Z,99.90
2018-08-03T03:52:45.352Z,99.90
2018-08-03T03:55:13.815Z,99.90
2018-08-03T03:57:42.315Z,99.90
2018-08-03T04:00:10.780Z,99.90
2018-08-03T04:02:39.335Z,99.90
2018-08-03T04:05:08.924Z,99.90
2018-08-03T04:07:37.411Z,99.90
2018-08-03T04:10:05.927Z,99.90
2018-08-03T04:12:34.411Z,99.90
2018-08-03T04:15:02.881Z,99.90
2018-08-03T04:17:31.336Z,99.90
2018-08-03T04:22:27.975Z,99.90
2018-08-03T04:24:56.432Z,99.90
2018-08-03T04:27:24.939Z,99.90
2018-08-03T04:29:53.463Z,99.90
2018-08-03T04:32:21.943Z,99.90
2018-08-03T04:34:50.391Z,99.90
2018-08-03T04:37:18.883Z,99.90
2018-08-03T04:42:15.505Z,99.90
2018-08-03T04:44:43.920Z,99.90
2018-08-03T04:49:40.508Z,99.90
2018-08-03T04:52:09.011Z,99.90
2018-08-03T04:54:37.467Z,99.90
2018-08-03T04:57:05.949Z,99.90
2018-08-03T04:59:34.428Z,99.90
2018-08-03T05:02:02.900Z,99.90
2018-08-03T05:04:31.347Z,99.90
2018-08-03T05:06:59.849Z,99.90
2018-08-03T05:09:28.256Z,99.90
2018-08-03T05:11:56.703Z,99.90
2018-08-03T05:19:21.479Z,99.90
2018-08-03T05:21:49.917Z,99.90
2018-08-03T05:24:18.436Z,99.90
2018-08-03T05:26:46.872Z,99.90
2018-08-03T05:34:11.687Z,99.90
2018-08-03T05:36:40.159Z,99.90
2018-08-03T05:39:10.515Z,99.90
2018-08-03T05:41:39.603Z,99.90
2018-08-03T05:46:36.772Z,99.90
2018-08-03T05:51:33.803Z,99.90
2018-08-03T05:54:02.295Z,99.90
2018-08-03T05:56:30.748Z,99.90
2018-08-03T05:58:59.231Z,99.90
2018-08-03T06:01:27.674Z,99.90
2018-08-03T06:06:24.314Z,99.90
2018-08-03T06:11:20.923Z,99.90
2018-08-03T06:13:49.419Z,99.90
2018-08-03T06:16:17.892Z,99.90
2018-08-03T06:21:14.476Z,99.90
2018-08-03T06:23:42.931Z,99.90
2018-08-03T06:26:11.364Z,99.90
2018-08-03T06:28:39.836Z,99.90
2018-08-03T06:31:08.327Z,99.90
2018-08-03T06:33:36.823Z,99.90
2018-08-03T06:36:05.387Z,99.90
2018-08-03T06:38:33.836Z,99.90
2018-08-03T06:41:02.326Z,99.90
2018-08-03T06:43:30.753Z,99.90
2018-08-03T06:45:59.244Z,99.90
2018-08-03T06:48:27.766Z,99.90
2018-08-03T06:50:56.384Z,99.90
2018-08-03T06:53:24.884Z,99.90
2018-08-03T06:55:53.351Z,99.90
2018-08-03T06:58:21.827Z,99.90
2018-08-03T07:00:50.360Z,99.90
2018-08-03T07:05:46.984Z,99.90
2018-08-03T07:08:15.486Z,99.90
2018-08-03T07:10:44.123Z,99.90
2018-08-03T07:13:12.572Z,99.90
2018-08-03T07:15:41.031Z,99.90
2018-08-03T07:18:09.467Z,99.90
2018-08-03T07:23:06.154Z,99.90
2018-08-03T07:25:34.611Z,99.90
2018-08-03T07:28:03.546Z,99.90
2018-08-03T07:30:32.050Z,99.90
2018-08-03T07:33:00.512Z,99.90
2018-08-03T07:35:28.984Z,99.90
2018-08-03T07:37:57.428Z,99.90
2018-08-03T07:40:26.296Z,99.90
2018-08-03T07:42:54.799Z,99.90
2018-08-03T07:45:23.236Z,99.90
2018-08-03T07:47:51.671Z,99.90
2018-08-03T07:50:20.204Z,99.90
2018-08-03T07:52:48.900Z,99.90
2018-08-03T07:55:17.583Z,99.90
2018-08-03T07:57:46.035Z,99.90
2018-08-03T08:00:14.499Z,99.90
2018-08-03T08:02:42.932Z,99.90
2018-08-03T08:05:11.412Z,99.90
2018-08-03T08:10:08.024Z,99.90
2018-08-03T08:12:36.533Z,99.90
2018-08-03T08:15:05.546Z,99.90
2018-08-03T08:17:34.041Z,99.90
2018-08-03T08:20:02.503Z,99.90
2018-08-03T08:22:31.008Z,99.90
2018-08-03T08:27:27.643Z,99.90
2018-08-03T08:29:56.232Z,99.90
2018-08-03T08:32:24.692Z,99.90
2018-08-03T08:34:53.124Z,99.90
2018-08-03T08:37:21.588Z,99.90
2018-08-03T08:39:50.036Z,99.90
2018-08-03T08:42:18.488Z,99.90
2018-08-03T08:44:46.931Z,99.90
2018-08-03T08:49:43.554Z,99.90
2018-08-03T08:52:11.996Z,99.90
2018-08-03T08:54:40.495Z,99.90
2018-08-03T08:59:34.778Z,99.90
2018-08-03T09:02:03.281Z,99.90
2018-08-03T09:04:31.761Z,99.90
2018-08-03T09:07:00.207Z,99.90
2018-08-03T09:09:28.636Z,99.90
2018-08-03T09:11:57.096Z,99.90
2018-08-03T09:14:25.547Z,99.90
2018-08-03T09:16:53.999Z,99.90
2018-08-03T09:19:22.417Z,99.90
2018-08-03T09:21:50.919Z,99.90
2018-08-03T09:24:19.356Z,99.90
2018-08-03T09:26:47.799Z,99.90
2018-08-03T09:29:16.216Z,99.90
2018-08-03T09:34:12.789Z,99.90
2018-08-03T09:36:41.244Z,99.90
2018-08-03T09:39:10.335Z,99.90
2018-08-03T09:41:38.795Z,99.90
2018-08-03T09:44:07.595Z,99.90
2018-08-03T09:46:36.100Z,99.90
2018-08-03T09:49:04.616Z,99.90
2018-08-03T09:51:33.756Z,99.90
2018-08-03T09:54:02.219Z,99.90
2018-08-03T09:56:30.666Z,99.90
2018-08-03T09:58:59.135Z,99.90
2018-08-03T10:01:27.559Z,99.90
2018-08-03T10:03:56.019Z,99.90
2018-08-03T10:06:24.439Z,99.90
2018-08-03T10:08:52.888Z,99.90
2018-08-03T10:11:21.307Z,99.90
2018-08-03T10:13:49.759Z,99.90
2018-08-03T10:16:18.195Z,98.40
2018-08-03T10:18:46.648Z,99.10
2018-08-03T10:21:15.095Z,98.00
2018-08-03T10:23:43.565Z,97.30
2018-08-03T10:26:11.988Z,97.20
2018-08-03T10:28:40.431Z,95.80
2018-08-03T10:31:08.888Z,94.30
2018-08-03T10:33:37.339Z,93.30
2018-08-03T10:38:33.967Z,91.50
2018-08-03T10:41:02.415Z,88.30
2018-08-03T10:43:30.919Z,86.70
2018-08-03T10:45:59.361Z,82.80
2018-08-03T10:48:27.825Z,81.20
2018-08-03T10:50:56.258Z,75.90
2018-08-03T10:53:24.735Z,75.40
2018-08-03T10:55:53.225Z,75.40
2018-08-03T10:58:21.746Z,71.00
2018-08-03T11:00:50.228Z,70.40
2018-08-03T11:03:18.683Z,64.30
2018-08-03T11:05:47.106Z,64.20
2018-08-03T11:08:15.572Z,61.00
2018-08-03T11:13:12.116Z,59.60
2018-08-03T11:15:40.571Z,58.10
2018-08-03T11:18:09.007Z,57.40
2018-08-03T11:20:37.475Z,57.70
2018-08-03T11:23:05.950Z,56.70
2018-08-03T11:28:02.523Z,54.80
2018-08-03T11:30:31.014Z,53.50
2018-08-03T11:32:59.435Z,52.70
2018-08-03T11:35:27.916Z,52.00
2018-08-03T11:37:56.351Z,49.50
2018-08-03T11:40:24.815Z,48.30
2018-08-03T11:42:53.244Z,49.40
2018-08-03T11:45:21.719Z,48.50
2018-08-03T11:47:50.148Z,47.10
2018-08-03T11:50:18.599Z,44.50
2018-08-03T11:52:47.064Z,44.10
2018-08-03T11:55:15.507Z,43.00
2018-08-03T11:57:43.927Z,42.10
2018-08-03T12:00:12.420Z,41.20
2018-08-03T12:02:40.860Z,40.40
2018-08-03T12:05:09.331Z,38.40
2018-08-03T12:07:37.766Z,36.80
2018-08-03T12:10:06.340Z,35.90
2018-08-03T12:12:34.839Z,35.00
2018-08-03T12:15:03.303Z,32.10
2018-08-03T12:17:31.736Z,30.10
2018-08-03T12:20:00.196Z,30.00
2018-08-03T12:24:56.852Z,27.60
2018-08-03T12:29:53.444Z,25.70
2018-08-03T12:32:21.897Z,25.40
2018-08-03T12:37:18.456Z,24.60
2018-08-03T12:39:46.900Z,24.30
2018-08-03T12:42:15.319Z,23.70
2018-08-03T12:44:43.743Z,23.40
2018-08-03T12:47:12.207Z,22.80
2018-08-03T12:49:40.624Z,22.50
2018-08-03T12:52:09.135Z,22.30
2018-08-03T12:54:37.547Z,22.10
2018-08-03T12:57:06.091Z,22.00
2018-08-03T12:59:34.572Z,21.90
2018-08-03T13:02:03.023Z,21.80
2018-08-03T13:04:31.452Z,21.70
2018-08-03T13:06:59.904Z,21.70
2018-08-03T13:09:28.343Z,23.00
2018-08-03T13:11:56.815Z,22.00
2018-08-03T13:14:25.243Z,22.00
2018-08-03T13:16:53.688Z,21.80
2018-08-03T13:19:22.120Z,22.50
2018-08-03T13:21:50.591Z,22.50
2018-08-03T13:24:19.011Z,22.20
2018-08-03T13:26:47.495Z,21.80
2018-08-03T13:29:15.936Z,21.50
2018-08-03T13:31:44.367Z,22.10
2018-08-03T13:34:12.824Z,22.40
2018-08-03T13:36:41.283Z,22.10
2018-08-03T13:39:09.786Z,22.20
2018-08-03T13:41:38.268Z,22.60
2018-08-03T13:44:06.783Z,22.70
2018-08-03T13:46:35.291Z,22.60
2018-08-03T13:49:03.755Z,23.70
2018-08-03T13:51:32.220Z,24.70
2018-08-03T13:54:00.684Z,24.80
2018-08-03T13:56:29.131Z,26.10
2018-08-03T13:58:57.572Z,26.20
2018-08-03T14:01:38.019Z,25.90
2018-08-03T14:04:06.636Z,26.80
2018-08-03T14:06:35.031Z,27.00
2018-08-03T14:09:04.547Z,27.40
2018-08-03T14:11:33.028Z,26.70
2018-08-03T14:14:01.456Z,27.10
2018-08-03T14:16:29.920Z,26.70
2018-08-03T14:18:58.360Z,26.90
2018-08-03T14:21:26.804Z,27.70
2018-08-03T14:23:55.258Z,27.60
2018-08-03T14:26:23.703Z,28.20
2018-08-03T14:28:52.135Z,28.00
2018-08-03T14:31:20.643Z,28.20
2018-08-03T14:33:49.063Z,28.00
2018-08-03T14:41:13.937Z,29.10
2018-08-03T14:43:42.335Z,29.80
2018-08-03T14:46:10.828Z,29.90
2018-08-03T14:48:39.291Z,29.50
2018-08-03T14:51:07.715Z,29.50
2018-08-03T14:56:04.300Z,30.00
2018-08-03T14:58:32.775Z,30.20
2018-08-03T15:01:01.304Z,30.20
2018-08-03T15:03:29.807Z,30.10
2018-08-03T15:08:26.372Z,29.80
2018-08-03T15:10:54.815Z,30.50
2018-08-03T15:13:23.289Z,30.40
2018-08-03T15:20:47.956Z,31.40
2018-08-03T15:25:44.522Z,29.90
2018-08-03T15:28:13.015Z,29.80
2018-08-03T15:30:41.476Z,29.80
2018-08-03T15:33:09.937Z,31.10
2018-08-03T15:35:38.403Z,31.70
2018-08-03T15:38:07.012Z,30.40
2018-08-03T15:40:35.443Z,29.90
2018-08-03T15:43:03.908Z,30.30
2018-08-03T15:45:32.647Z,30.20
2018-08-03T15:48:01.089Z,30.80
2018-08-03T15:50:29.535Z,31.40
2018-08-03T15:52:58.020Z,31.40
2018-08-03T15:55:26.475Z,32.20
2018-08-03T15:57:54.926Z,31.80
2018-08-03T16:00:23.360Z,31.40
2018-08-03T16:02:51.815Z,31.90
2018-08-03T16:07:48.371Z,32.10
2018-08-03T16:10:16.798Z,31.70
2018-08-03T16:12:45.330Z,31.90
2018-08-03T16:15:13.788Z,31.80
2018-08-03T16:17:42.252Z,32.60
2018-08-03T16:20:10.684Z,31.40
2018-08-03T16:25:07.307Z,30.60
2018-08-03T16:27:35.762Z,31.90
2018-08-03T16:30:04.944Z,31.70
2018-08-03T16:32:33.489Z,31.10
2018-08-03T16:35:01.891Z,30.40
2018-08-03T16:37:30.362Z,31.50
2018-08-03T16:42:26.916Z,30.80
2018-08-03T16:47:23.499Z,32.30
2018-08-03T16:49:51.995Z,31.80
2018-08-03T16:52:20.479Z,31.40
2018-08-03T16:54:48.917Z,31.50
2018-08-03T16:57:17.336Z,31.60
2018-08-03T16:59:45.795Z,31.30
2018-08-03T17:02:14.272Z,32.20
2018-08-03T17:04:42.764Z,31.70
2018-08-03T17:07:11.205Z,31.60
2018-08-03T17:09:39.639Z,31.90
2018-08-03T17:12:08.079Z,32.60
2018-08-03T17:14:36.519Z,32.90
2018-08-03T17:17:04.964Z,33.50
2018-08-03T17:19:33.407Z,32.80
2018-08-03T17:22:01.864Z,32.80
2018-08-03T17:24:30.315Z,33.80
2018-08-03T17:26:58.759Z,33.30
2018-08-03T17:29:27.207Z,33.60
2018-08-03T17:31:55.721Z,34.60
2018-08-03T17:34:24.156Z,35.30
2018-08-03T17:36:52.634Z,36.10
2018-08-03T17:39:21.066Z,35.90
2018-08-03T17:44:17.658Z,36.60
2018-08-03T17:46:46.110Z,36.30
2018-08-03T17:51:42.672Z,35.70
2018-08-03T17:54:11.153Z,36.20
2018-08-03T17:56:39.579Z,36.80
2018-08-03T17:59:08.016Z,36.70
2018-08-03T18:01:36.451Z,36.60
2018-08-03T18:04:04.903Z,37.80
2018-08-03T18:06:33.340Z,36.60
2018-08-03T18:09:01.792Z,37.80
2018-08-03T18:11:30.231Z,36.80
2018-08-03T18:13:58.656Z,38.00
2018-08-03T18:16:27.115Z,38.00
2018-08-03T18:18:55.556Z,37.90
2018-08-03T18:21:24.015Z,37.60
2018-08-03T18:23:52.464Z,38.30
2018-08-03T18:26:20.923Z,39.10
2018-08-03T18:28:49.417Z,39.00
2018-08-03T18:31:17.867Z,39.10
2018-08-03T18:33:46.306Z,39.80
2018-08-03T18:36:14.919Z,40.20
2018-08-03T18:41:11.499Z,41.00
2018-08-03T18:43:39.943Z,41.30
2018-08-03T18:46:08.453Z,41.70
2018-08-03T18:48:36.841Z,42.30
2018-08-03T18:51:05.560Z,42.60
2018-08-03T18:53:33.972Z,42.70
2018-08-03T18:58:30.571Z,43.50
2018-08-03T19:00:59.051Z,43.50
2018-08-03T19:03:27.496Z,44.30
2018-08-03T19:08:24.070Z,44.60
2018-08-03T19:10:52.545Z,44.80
2018-08-03T19:13:20.975Z,45.10
2018-08-03T19:15:49.669Z,45.70
2018-08-03T19:18:18.221Z,45.80
2018-08-03T19:20:46.694Z,46.20
2018-08-03T19:23:15.151Z,46.40
2018-08-03T19:25:43.640Z,46.50
2018-08-03T19:28:12.107Z,46.70
2018-08-03T19:30:40.543Z,46.90
2018-08-03T19:33:09.082Z,47.20
2018-08-03T19:35:37.507Z,46.70
2018-08-03T19:38:05.984Z,46.80
2018-08-03T19:40:34.403Z,46.70
2018-08-03T19:45:30.974Z,47.00
2018-08-03T19:47:59.427Z,47.20
2018-08-03T19:50:27.867Z,47.40
2018-08-03T19:52:56.335Z,47.40
2018-08-03T19:55:24.784Z,47.60
2018-08-03T20:00:21.364Z,48.60
2018-08-03T20:02:49.838Z,49.10
2018-08-03T20:05:18.329Z,49.20
2018-08-03T20:07:46.818Z,49.50
2018-08-03T20:10:15.344Z,49.80
2018-08-03T20:12:43.795Z,50.20
2018-08-03T20:15:12.236Z,50.70
2018-08-03T20:17:40.696Z,51.10
2018-08-03T20:20:09.168Z,51.40
2018-08-03T20:22:37.635Z,52.70
2018-08-03T20:25:06.469Z,52.40
2018-08-03T20:27:34.952Z,52.70
2018-08-03T20:30:03.452Z,53.40
2018-08-03T20:32:31.940Z,53.60
2018-08-03T20:35:00.387Z,53.80
2018-08-03T20:37:28.875Z,54.30
2018-08-03T20:42:25.475Z,54.70
2018-08-03T20:44:53.972Z,55.20
2018-08-03T20:47:22.427Z,55.50
2018-08-03T20:49:50.896Z,56.20
2018-08-03T20:52:19.467Z,56.30
2018-08-03T20:54:47.968Z,56.90
2018-08-03T20:57:16.399Z,57.00
2018-08-03T20:59:45.303Z,57.10
2018-08-03T21:04:41.891Z,57.60
2018-08-03T21:07:10.324Z,58.00
2018-08-03T21:09:38.796Z,58.00
2018-08-03T21:12:07.273Z,58.20
2018-08-03T21:14:35.760Z,58.20
2018-08-03T21:17:04.223Z,59.00
2018-08-03T21:19:32.689Z,59.00
2018-08-03T21:22:01.115Z,59.50
2018-08-03T21:24:29.572Z,59.70
2018-08-03T21:26:57.999Z,60.20
2018-08-03T21:29:26.459Z,60.70
2018-08-03T21:34:23.026Z,62.10
2018-08-03T21:36:51.466Z,62.80
2018-08-03T21:39:19.967Z,63.50
2018-08-03T21:41:48.396Z,63.90
2018-08-03T21:44:16.891Z,64.60
2018-08-03T21:46:45.311Z,64.90
2018-08-03T21:49:13.763Z,65.50
2018-08-03T21:51:42.191Z,66.30
2018-08-03T21:54:10.646Z,66.70
2018-08-03T21:56:39.131Z,67.20
2018-08-03T21:59:07.587Z,67.60
2018-08-03T22:01:36.051Z,68.50
2018-08-03T22:04:04.526Z,68.90
2018-08-03T22:06:32.987Z,70.00
2018-08-03T22:09:01.495Z,71.20
2018-08-03T22:11:29.980Z,72.00
2018-08-03T22:16:32.307Z,73.50
2018-08-03T22:19:00.846Z,74.20
2018-08-03T22:21:29.204Z,74.90
2018-08-03T22:23:57.679Z,76.00
2018-08-03T22:26:26.185Z,76.60
2018-08-03T22:28:54.656Z,77.60
2018-08-03T22:31:23.098Z,78.20
2018-08-03T22:33:51.632Z,79.40
2018-08-03T22:36:20.083Z,80.60
2018-08-03T22:41:16.684Z,82.10
2018-08-03T22:43:45.116Z,83.40
2018-08-03T22:46:13.571Z,84.80
2018-08-03T22:48:42.231Z,86.20
2018-08-03T22:51:10.711Z,86.90
2018-08-03T22:53:39.155Z,88.20
2018-08-03T22:56:07.625Z,89.10
2018-08-03T22:58:36.064Z,89.70
2018-08-03T23:01:04.598Z,90.20
2018-08-03T23:03:32.997Z,90.70
2018-08-03T23:06:01.453Z,91.30
2018-08-03T23:08:29.903Z,91.40
2018-08-03T23:10:58.379Z,92.00
2018-08-03T23:13:26.819Z,92.30
2018-08-03T23:15:56.735Z,92.80
2018-08-03T23:18:25.245Z,93.00
2018-08-03T23:20:53.786Z,93.40
2018-08-03T23:23:22.253Z,93.90
2018-08-03T23:25:51.312Z,94.30
2018-08-03T23:28:19.811Z,94.70
2018-08-03T23:33:16.675Z,95.60
2018-08-03T23:35:45.153Z,95.90
2018-08-03T23:38:13.587Z,96.20
2018-08-03T23:40:42.095Z,96.60
2018-08-03T23:43:10.656Z,97.00
2018-08-03T23:45:39.103Z,97.20
2018-08-03T23:48:07.540Z,97.80
2018-08-03T23:50:36.044Z,98.10
2018-08-03T23:55:32.639Z,98.50
2018-08-03T23:58:01.080Z,99.10
